Time;durP1;ratioP1;P1;durP2;ratioP2;P2;SDS_P1;SDS_P2;PMS_P1;PMS_P2;Temp;Humidity;BMP_temperature;BMP_pressure;BME280_temperature;BME280_humidity;BME280_pressure;Samples;Min_cycle;Max_cycle;Signal;HPM_P1;HPM_P2
2023/10/01 00:00:43;;;;;;;2.33;1.67;;;;;;;16.90;nan;61256.13;5054406;28;20184;-64
2023/10/01 00:03:09;;;;;;;1.60;1.50;;;;;;;17.01;nan;61358.88;5056003;28;20246;-63
2023/10/01 00:05:35;;;;;;;1.35;1.25;;;;;;;17.03;nan;61534.06;5055959;28;20178;-63
2023/10/01 00:08:01;;;;;;;1.48;1.25;;;;;;;16.93;nan;61349.81;5055818;28;20185;-64
2023/10/01 00:10:27;;;;;;;1.23;1.13;;;;;;;16.97;nan;61369.84;5055650;28;20175;-64
2023/10/01 00:12:54;;;;;;;3.28;1.83;;;;;;;17.19;nan;61271.38;5055415;28;20171;-63
2023/10/01 00:15:24;;;;;;;2.25;1.20;;;;;;;17.45;nan;61389.97;5055681;28;20551;-64
2023/10/01 00:17:50;;;;;;;1.27;1.17;;;;;;;17.41;nan;61302.81;5055609;28;20174;-64
2023/10/01 00:22:46;;;;;;;1.40;1.30;;;;;;;17.28;nan;61306.22;5055551;28;20171;-64
2023/10/01 00:25:12;;;;;;;1.40;1.30;;;;;;;17.16;nan;61042.81;5055595;28;20162;-63
2023/10/01 00:27:38;;;;;;;2.60;1.80;;;;;;;17.65;nan;61360.94;5055435;28;20208;-64
2023/10/01 00:30:09;;;;;;;1.55;1.30;;;;;;;17.69;nan;61453.31;5054998;28;20199;-62
2023/10/01 00:32:35;;;;;;;1.77;1.33;;;;;;;18.04;nan;61366.25;5055366;28;20198;-63
2023/10/01 00:35:03;;;;;;;1.00;1.00;;;;;;;18.05;nan;61501.25;5054890;28;20253;-63
2023/10/01 00:37:28;;;;;;;1.40;1.30;;;;;;;18.09;nan;61511.53;5054978;28;20170;-64
2023/10/01 00:39:54;;;;;;;1.63;1.15;;;;;;;13.25;nan;62854.28;5055026;28;20524;-62
2023/10/01 00:42:24;;;;;;;1.20;1.10;;;;;;;18.16;nan;61418.03;5055037;28;20237;-63
2023/10/01 00:44:49;;;;;;;1.50;1.33;;;;;;;18.05;nan;61403.00;5055204;28;20155;-65
2023/10/01 00:47:16;;;;;;;2.15;1.38;;;;;;;17.82;nan;61336.22;5054760;28;20185;-63
2023/10/01 00:49:46;;;;;;;1.15;1.00;;;;;;;17.78;nan;61455.75;5054858;28;20198;-64
2023/10/01 00:52:18;;;;;;;1.27;1.20;;;;;;;17.91;nan;61351.56;5055163;28;20174;-62
2023/10/01 00:54:44;;;;;;;1.38;1.10;;;;;;;17.87;nan;61336.72;5054608;28;20243;-63
2023/10/01 00:57:10;;;;;;;1.90;1.15;;;;;;;18.04;nan;61347.59;5054742;28;20262;-63
2023/10/01 00:59:36;;;;;;;1.83;1.65;;;;;;;17.96;nan;61450.28;5054711;28;20193;-64
2023/10/01 01:02:07;;;;;;;1.13;1.02;;;;;;;17.86;nan;61469.41;5054527;28;20228;-63
2023/10/01 01:04:42;;;;;;;1.80;1.25;;;;;;;17.82;nan;61495.88;5042030;28;20694;-64
2023/10/01 01:07:14;;;;;;;1.20;1.10;;;;;;;17.80;nan;61493.63;5050037;28;20535;-64
2023/10/01 01:09:43;;;;;;;1.05;0.95;;;;;;;17.73;nan;61446.94;5035362;28;20249;-64
2023/10/01 01:12:09;;;;;;;1.33;1.23;;;;;;;17.92;nan;61365.06;5037608;28;20182;-63
2023/10/01 01:14:36;;;;;;;6.47;1.95;;;;;;;17.68;nan;61470.28;5054386;28;20245;-63
2023/10/01 01:17:03;;;;;;;2.45;1.70;;;;;;;17.92;nan;61357.31;5054357;28;20167;-63
2023/10/01 01:19:29;;;;;;;1.40;1.30;;;;;;;17.61;nan;61426.75;5054438;28;20175;-63
2023/10/01 01:21:55;;;;;;;1.45;1.30;;;;;;;17.86;nan;61360.84;5053725;28;20179;-63
2023/10/01 01:24:21;;;;;;;2.05;1.13;;;;;;;17.85;nan;61416.59;5053940;28;20175;-64
2023/10/01 01:26:51;;;;;;;1.10;0.90;;;;;;;17.87;nan;61391.00;5054165;28;20682;-62
2023/10/01 01:29:29;;;;;;;1.30;1.15;;;;;;;18.13;nan;61367.56;5053772;28;20220;-63
2023/10/01 01:32:07;;;;;;;1.67;1.42;;;;;;;17.99;nan;61360.59;5054092;28;20616;-63
2023/10/01 01:34:34;;;;;;;1.00;1.00;;;;;;;18.06;nan;61329.75;5053532;28;20216;-63
2023/10/01 01:37:02;;;;;;;1.27;1.17;;;;;;;18.28;nan;61416.09;5053621;28;20179;-63
2023/10/01 01:39:45;;;;;;;0.80;0.80;;;;;;;18.23;nan;61410.44;5054262;28;20163;-63
2023/10/01 01:42:11;;;;;;;1.20;1.10;;;;;;;18.54;nan;61416.50;5053752;28;20167;-63
2023/10/01 01:44:38;;;;;;;3.08;1.38;;;;;;;18.63;nan;61552.91;5053777;28;20622;-63
2023/10/01 01:47:07;;;;;;;1.38;1.10;;;;;;;18.60;nan;61373.53;5053946;28;20178;-63
2023/10/01 01:49:32;;;;;;;1.55;1.40;;;;;;;18.48;nan;61539.03;5053614;28;20638;-64
2023/10/01 01:51:59;;;;;;;1.17;1.08;;;;;;;18.76;nan;61464.66;5053816;28;20252;-64
2023/10/01 01:54:31;;;;;;;1.38;1.10;;;;;;;18.74;nan;61464.41;5053580;28;20178;-63
2023/10/01 01:56:57;;;;;;;3.88;1.58;;;;;;;18.67;nan;61555.41;5053400;28;20218;-64
2023/10/01 01:59:24;;;;;;;2.47;1.52;;;;;;;18.57;nan;61460.72;5052995;28;20243;-64
2023/10/01 02:01:51;;;;;;;1.63;1.17;;;;;;;18.80;nan;61447.91;5053695;28;20175;-63
2023/10/01 02:04:18;;;;;;;1.55;1.45;;;;;;;18.61;nan;61512.38;5053178;28;20166;-62
2023/10/01 02:06:45;;;;;;;1.20;1.10;;;;;;;18.67;nan;61436.38;5053273;28;20181;-63
2023/10/01 02:09:19;;;;;;;1.55;1.33;;;;;;;18.34;nan;61404.78;5053392;28;20202;-63
2023/10/01 02:11:49;;;;;;;1.00;1.00;;;;;;;18.35;nan;61428.63;5053417;28;20636;-64
2023/10/01 02:14:30;;;;;;;1.58;1.40;;;;;;;18.24;nan;61390.31;5052945;28;20228;-64
2023/10/01 02:17:32;;;;;;;1.30;1.20;;;;;;;18.13;nan;61350.00;5053568;28;20178;-64
2023/10/01 02:19:50;;;;;;;1.10;1.00;;;;;;;18.36;nan;61427.72;5049747;28;20190;-64
2023/10/01 02:22:16;;;;;;;2.25;1.35;;;;;;;18.40;nan;61421.34;5052763;28;20181;-64
2023/10/01 02:24:54;;;;;;;1.33;1.20;;;;;;;18.40;nan;61419.31;5053007;28;20178;-63
2023/10/01 02:27:19;;;;;;;1.70;1.23;;;;;;;18.37;nan;61382.28;5053073;28;20158;-63
2023/10/01 02:29:46;;;;;;;1.08;1.08;;;;;;;18.51;nan;61488.09;5052901;28;20710;-63
2023/10/01 02:32:15;;;;;;;1.20;1.10;;;;;;;18.60;nan;61536.56;5053115;28;20573;-63
2023/10/01 02:34:43;;;;;;;1.30;1.20;;;;;;;18.61;nan;61535.09;5052761;28;20630;-63
2023/10/01 02:37:09;;;;;;;0.90;0.90;;;;;;;18.73;nan;61471.03;5053448;28;20212;-64
2023/10/01 02:39:37;;;;;;;5.10;1.52;;;;;;;18.46;nan;61444.19;5052690;28;20566;-63
2023/10/01 02:44:33;;;;;;;1.92;1.10;;;;;;;18.57;nan;61409.53;5052632;28;20185;-63
2023/10/01 02:47:03;;;;;;;1.27;1.02;;;;;;;18.61;nan;61413.50;5052269;28;20188;-63
2023/10/01 02:49:32;;;;;;;1.15;1.02;;;;;;;15.31;nan;62956.25;5052322;28;20538;-63
2023/10/01 02:51:59;;;;;;;1.83;0.93;;;;;;;18.57;nan;61419.31;5052424;28;20189;-63
2023/10/01 02:54:28;;;;;;;1.67;1.48;;;;;;;18.50;nan;61430.06;5052450;28;20171;-64
2023/10/01 02:57:12;;;;;;;2.13;1.42;;;;;;;18.43;nan;61391.66;5052591;28;20252;-63
2023/10/01 03:00:20;;;;;;;0.90;0.90;;;;;;;18.46;nan;61428.13;5051187;28;20265;-63
2023/10/01 03:02:33;;;;;;;2.25;1.33;;;;;;;18.46;nan;61562.66;5052143;28;20678;-63
2023/10/01 03:05:07;;;;;;;1.08;1.02;;;;;;;18.39;nan;61431.13;5052476;28;20155;-62
2023/10/01 03:07:38;;;;;;;1.20;1.00;;;;;;;18.45;nan;61427.56;5052483;28;20253;-63
2023/10/01 03:10:16;;;;;;;1.25;1.15;;;;;;;18.40;nan;61538.28;5052045;28;20187;-64
2023/10/01 03:12:49;;;;;;;1.73;1.35;;;;;;;18.20;nan;61507.91;5052466;28;20257;-64
2023/10/01 03:17:55;;;;;;;1.85;1.27;;;;;;;18.40;nan;61401.19;5051913;28;20231;-65
2023/10/01 03:23:07;;;;;;;1.13;1.05;;;;;;;18.87;nan;61448.06;5052228;28;20264;-64
2023/10/01 03:25:42;;;;;;;1.48;1.05;;;;;;;18.79;nan;61423.47;5052289;28;20228;-63
2023/10/01 03:28:35;;;;;;;1.52;1.42;;;;;;;18.85;nan;61603.72;5052368;28;20642;-64
2023/10/01 03:31:16;;;;;;;1.30;1.20;;;;;;;19.01;nan;61531.22;5051495;28;20221;-65
2023/10/01 03:33:45;;;;;;;1.27;1.02;;;;;;;18.80;nan;61460.84;5052376;28;20159;-64
2023/10/01 03:36:12;;;;;;;1.27;1.00;;;;;;;18.92;nan;61477.00;5056987;28;20531;-63
2023/10/01 03:38:37;;;;;;;1.45;1.35;;;;;;;18.92;nan;61575.97;5058760;28;20174;-63
2023/10/01 03:41:09;;;;;;;2.30;1.00;;;;;;;18.77;nan;61584.88;5058450;28;20178;-64
2023/10/01 03:43:36;;;;;;;1.10;1.00;;;;;;;18.77;nan;61455.44;5058284;28;20159;-64
2023/10/01 03:46:13;;;;;;;2.30;1.00;;;;;;;18.67;nan;61456.50;5058695;28;20171;-63
2023/10/01 03:48:58;;;;;;;1.65;1.52;;;;;;;18.74;nan;61583.47;5058445;28;20213;-63
2023/10/01 03:51:29;;;;;;;0.93;0.93;;;;;;;18.92;nan;61479.59;5058630;28;20174;-63
2023/10/01 03:53:59;;;;;;;1.80;1.45;;;;;;;18.79;nan;61475.81;5058204;28;20167;-63
2023/10/01 03:56:29;;;;;;;1.20;1.10;;;;;;;18.99;nan;61497.88;5058462;28;20218;-63
2023/10/01 03:58:55;;;;;;;1.42;1.13;;;;;;;19.08;nan;61471.25;5058483;28;20668;-64
2023/10/01 04:01:26;;;;;;;1.17;1.05;;;;;;;18.87;nan;61458.97;5058539;28;20240;-64
2023/10/01 04:03:51;;;;;;;0.93;0.90;;;;;;;19.07;nan;61504.34;5058407;28;20182;-64
2023/10/01 04:06:20;;;;;;;1.42;1.33;;;;;;;19.24;nan;61526.19;5057824;28;20217;-63
2023/10/01 04:08:47;;;;;;;1.20;1.10;;;;;;;19.12;nan;61620.81;5058144;28;20194;-64
2023/10/01 04:11:15;;;;;;;4.25;1.85;;;;;;;19.26;nan;61496.78;5058849;28;20228;-64
2023/10/01 04:13:41;;;;;;;2.03;1.60;;;;;;;19.40;nan;61561.88;5058478;28;20170;-64
2023/10/01 04:16:14;;;;;;;1.23;1.10;;;;;;;19.29;nan;61513.69;5058141;28;20174;-63
2023/10/01 04:18:42;;;;;;;1.02;0.95;;;;;;;19.32;nan;61519.69;5058354;28;20177;-64
2023/10/01 04:23:49;;;;;;;1.30;1.20;;;;;;;19.53;nan;61633.06;5057970;28;20625;-63
2023/10/01 04:26:19;;;;;;;1.60;1.20;;;;;;;19.51;nan;61814.81;5058189;28;20162;-64
2023/10/01 04:28:54;;;;;;;1.35;1.25;;;;;;;19.33;nan;61629.06;5058090;28;20185;-63
2023/10/01 04:31:42;;;;;;;1.15;1.02;;;;;;;19.42;nan;61461.03;5058817;28;20212;-64
2023/10/01 04:34:10;;;;;;;0.90;0.90;;;;;;;19.52;nan;61552.16;5057677;28;20261;-64
2023/10/01 04:36:50;;;;;;;0.65;0.63;;;;;;;19.64;nan;61567.78;5058170;28;20174;-62
2023/10/01 04:39:17;;;;;;;1.10;1.02;;;;;;;19.54;nan;61525.34;5057148;28;20578;-63
2023/10/01 04:41:45;;;;;;;1.17;0.90;;;;;;;19.60;nan;61581.97;5057864;28;20261;-64
2023/10/01 04:44:13;;;;;;;1.25;1.00;;;;;;;19.47;nan;61437.09;5058010;28;20170;-64
2023/10/01 04:46:40;;;;;;;1.25;1.15;;;;;;;19.75;nan;61775.22;5054923;28;20201;-64
2023/10/01 04:49:31;;;;;;;0.82;0.82;;;;;;;19.87;nan;61569.91;5054606;28;20249;-67
2023/10/01 04:52:00;;;;;;;1.38;1.08;;;;;;;19.99;nan;61544.59;5055018;28;20266;-65
2023/10/01 04:54:28;;;;;;;1.58;1.42;;;;;;;20.03;nan;61593.78;5054378;28;20198;-64
2023/10/01 04:56:57;;;;;;;1.10;1.00;;;;;;;19.85;nan;61666.75;5043321;28;20255;-62
2023/10/01 04:59:24;;;;;;;1.92;1.05;;;;;;;19.85;nan;61519.50;5047778;28;20188;-65
2023/10/01 05:01:56;;;;;;;1.13;0.88;;;;;;;20.13;nan;61760.75;5038463;28;20195;-64
2023/10/01 05:04:23;;;;;;;1.25;1.15;;;;;;;20.25;nan;61584.44;5036275;28;20233;-64
2023/10/01 05:07:00;;;;;;;2.05;1.80;;;;;;;20.41;nan;61661.69;5053109;28;20181;-63
2023/10/01 05:09:28;;;;;;;4.90;2.00;;;;;;;20.50;nan;61936.66;5054446;28;20610;-64
2023/10/01 05:11:55;;;;;;;1.48;1.38;;;;;;;20.57;nan;61708.38;5054112;28;20200;-63
2023/10/01 05:14:22;;;;;;;5.45;2.47;;;;;;;20.52;nan;61798.75;5054364;28;20175;-62
2023/10/01 05:16:54;;;;;;;1.20;1.08;;;;;;;20.79;nan;61652.84;5054550;28;20171;-65
2023/10/01 05:19:23;;;;;;;1.13;1.02;;;;;;;21.03;nan;61736.63;5054354;28;20698;-63
2023/10/01 05:21:50;;;;;;;1.70;1.35;;;;;;;21.02;nan;61730.84;5050110;28;20176;-63
2023/10/01 05:24:35;;;;;;;0.95;0.95;;;;;;;21.10;nan;61677.56;5031480;28;20187;-63
2023/10/01 05:27:02;;;;;;;1.45;1.05;;;;;;;21.15;nan;61735.22;5052067;28;20683;-63
2023/10/01 05:29:28;;;;;;;1.48;1.25;;;;;;;20.92;nan;61833.22;5034386;28;20195;-64
2023/10/01 05:31:55;;;;;;;4.43;1.30;;;;;;;21.71;nan;61896.47;5040446;28;20186;-64
2023/10/01 05:34:22;;;;;;;1.23;0.93;;;;;;;21.83;nan;61824.25;5053453;28;20166;-64
2023/10/01 05:36:52;;;;;;;1.88;1.45;;;;;;;21.10;nan;61851.66;5054144;28;20231;-64
2023/10/01 05:39:23;;;;;;;0.85;0.85;;;;;;;21.91;nan;61929.63;5054058;28;20262;-64
2023/10/01 05:41:51;;;;;;;1.73;1.27;;;;;;;21.85;nan;61893.59;5053814;28;20170;-64
2023/10/01 05:44:18;;;;;;;1.20;1.10;;;;;;;21.92;nan;61816.25;5054001;28;20196;-64
2023/10/01 05:46:46;;;;;;;2.70;1.50;;;;;;;22.06;nan;61870.63;5053312;28;20217;-63
2023/10/01 05:49:12;;;;;;;1.33;0.95;;;;;;;22.06;nan;61922.13;5053495;28;20678;-64
2023/10/01 05:51:45;;;;;;;1.38;1.17;;;;;;;21.90;nan;62001.31;5053621;28;20162;-65
2023/10/01 05:54:12;;;;;;;1.35;1.23;;;;;;;21.88;nan;61816.91;5035838;28;20253;-63
2023/10/01 05:56:39;;;;;;;1.27;0.90;;;;;;;21.66;nan;61749.78;5050822;28;20246;-63
2023/10/01 05:59:05;;;;;;;1.02;0.93;;;;;;;21.67;nan;61761.88;5033047;28;20183;-64
2023/10/01 06:01:33;;;;;;;1.63;1.13;;;;;;;21.77;nan;61861.09;5040826;28;20528;-64
2023/10/01 06:03:59;;;;;;;1.38;1.27;;;;;;;21.73;nan;61859.72;5053608;28;20599;-64
2023/10/01 06:06:24;;;;;;;2.22;1.73;;;;;;;21.69;nan;61792.75;5053533;28;20179;-63
2023/10/01 06:08:58;;;;;;;1.90;1.25;;;;;;;21.60;nan;61801.31;5052752;28;20293;-64
2023/10/01 06:11:41;;;;;;;1.13;1.00;;;;;;;21.47;nan;61739.19;5053793;28;20328;-63
2023/10/01 06:14:08;;;;;;;1.42;1.30;;;;;;;21.73;nan;61783.75;5053314;28;20174;-64
2023/10/01 06:16:40;;;;;;;1.20;1.10;;;;;;;19.59;nan;61725.41;5052979;28;20604;-64
2023/10/01 06:19:11;;;;;;;3.17;1.63;;;;;;;21.32;nan;61722.19;5053029;28;20228;-64
2023/10/01 06:21:39;;;;;;;1.35;1.15;;;;;;;21.34;nan;61709.44;5053048;28;20217;-65
2023/10/01 06:24:07;;;;;;;3.22;1.77;;;;;;;21.35;nan;61720.97;5051978;28;20557;-64
2023/10/01 06:26:50;;;;;;;0.98;0.98;;;;;;;21.49;nan;61913.63;5052736;28;20162;-64
2023/10/01 06:29:16;;;;;;;0.80;0.80;;;;;;;21.35;nan;61780.19;5042588;28;20666;-64
2023/10/01 06:31:52;;;;;;;1.20;1.05;;;;;;;21.31;nan;61747.06;5045140;28;20224;-63
2023/10/01 06:34:21;;;;;;;2.78;1.38;;;;;;;21.05;nan;61777.84;5036843;28;20603;-65
2023/10/01 06:36:51;;;;;;;0.90;0.90;;;;;;;20.84;nan;61694.84;5034242;28;20232;-63
2023/10/01 06:39:19;;;;;;;1.23;1.00;;;;;;;20.83;nan;61605.41;5052900;28;20271;-63
2023/10/01 06:41:48;;;;;;;1.08;1.00;;;;;;;20.88;nan;61696.78;5052512;28;20181;-66
2023/10/01 06:44:14;;;;;;;1.20;1.10;;;;;;;20.90;nan;61714.63;5052723;28;20304;-65
2023/10/01 06:46:40;;;;;;;1.35;1.17;;;;;;;20.85;nan;61696.00;5052635;28;20622;-62
2023/10/01 06:49:08;;;;;;;1.25;1.15;;;;;;;20.70;nan;61796.41;5052005;28;20202;-65
2023/10/01 06:51:43;;;;;;;1.13;0.95;;;;;;;21.11;nan;61989.94;5052247;28;20259;-64
2023/10/01 06:54:10;;;;;;;1.42;1.17;;;;;;;21.27;nan;61760.72;5052334;28;20182;-63
2023/10/01 06:56:37;;;;;;;1.10;0.90;;;;;;;21.17;nan;61887.09;5051968;28;20222;-64
2023/10/01 07:01:34;;;;;;;1.58;1.42;;;;;;;21.21;nan;61902.59;5052583;28;20179;-67
2023/10/01 07:04:09;;;;;;;3.13;0.93;;;;;;;21.10;nan;61708.75;5039353;28;20215;-64
2023/10/01 07:06:36;;;;;;;1.33;1.23;;;;;;;21.30;nan;61873.28;5043944;28;20196;-64
2023/10/01 07:09:06;;;;;;;1.38;1.05;;;;;;;20.95;nan;61605.44;5029841;28;20242;-63
2023/10/01 07:11:33;;;;;;;1.40;1.10;;;;;;;20.99;nan;61659.91;5035271;28;20190;-63
2023/10/01 07:14:03;;;;;;;1.98;0.93;;;;;;;21.40;nan;62043.78;5040488;28;20183;-63
2023/10/01 07:16:35;;;;;;;1.88;1.45;;;;;;;21.33;nan;61780.50;5031548;28;20191;-63
2023/10/01 07:19:13;;;;;;;1.73;1.50;;;;;;;21.14;nan;61850.44;5029677;28;20189;-64
2023/10/01 07:21:45;;;;;;;2.22;1.63;;;;;;;21.42;nan;61741.88;5033436;28;20198;-64
2023/10/01 07:24:11;;;;;;;1.75;1.23;;;;;;;21.34;nan;61742.66;5046727;28;20183;-63
2023/10/01 07:26:40;;;;;;;1.63;1.40;;;;;;;21.40;nan;61731.84;5032204;28;20168;-64
2023/10/01 07:29:08;;;;;;;1.77;1.30;;;;;;;21.40;nan;61729.22;5042587;28;20202;-65
2023/10/01 07:31:38;;;;;;;1.40;1.23;;;;;;;21.14;nan;61700.31;5040168;28;20578;-63
2023/10/01 07:34:12;;;;;;;1.83;1.45;;;;;;;21.23;nan;61847.69;5045960;28;20266;-64
2023/10/01 07:36:42;;;;;;;1.40;0.90;;;;;;;21.49;nan;61827.84;5034456;28;20188;-63
2023/10/01 07:39:09;;;;;;;1.27;1.15;;;;;;;21.31;nan;61752.81;5034618;28;20194;-65
2023/10/01 07:41:38;;;;;;;2.13;1.05;;;;;;;21.31;nan;61739.81;5051551;28;20649;-64
2023/10/01 07:44:08;;;;;;;1.67;1.25;;;;;;;21.39;nan;61727.53;5051944;28;20614;-65
2023/10/01 07:46:36;;;;;;;2.03;1.20;;;;;;;21.40;nan;61731.25;5052024;28;20166;-62
2023/10/01 07:49:03;;;;;;;1.75;1.13;;;;;;;21.55;nan;61821.06;5051651;28;20187;-64
2023/10/01 07:51:35;;;;;;;3.13;1.92;;;;;;;21.71;nan;61766.41;5051889;28;20170;-64
2023/10/01 07:54:11;;;;;;;1.10;1.00;;;;;;;21.81;nan;61920.28;5051540;28;20506;-65
2023/10/01 07:56:48;;;;;;;1.30;1.20;;;;;;;21.78;nan;61779.56;5051687;28;20230;-63
2023/10/01 07:59:33;;;;;;;1.70;1.38;;;;;;;18.63;nan;63341.53;5051524;28;20702;-66
2023/10/01 08:05:08;;;;;;;1.33;1.23;;;;;;;22.07;nan;61858.19;5051476;28;20189;-64
2023/10/01 08:07:39;;;;;;;1.48;1.20;;;;;;;22.01;nan;61847.31;5051686;28;20640;-64
2023/10/01 08:10:13;;;;;;;1.67;1.33;;;;;;;22.34;nan;61862.84;5052006;28;20203;-63
2023/10/01 08:17:54;;;;;;;2.08;1.45;;;;;;;22.62;nan;61899.28;5051276;28;20240;-64
2023/10/01 08:20:30;;;;;;;1.80;1.27;;;;;;;22.63;nan;62061.91;5052545;28;20510;-63
2023/10/01 08:23:12;;;;;;;1.65;1.30;;;;;;;22.71;nan;62190.88;5055680;28;20174;-64
2023/10/01 08:25:42;;;;;;;1.50;1.38;;;;;;;22.75;nan;62123.06;5055245;28;20242;-62
2023/10/01 08:30:39;;;;;;;1.92;1.27;;;;;;;22.96;nan;61979.06;5055046;28;20236;-64
2023/10/01 08:33:18;;;;;;;2.35;1.40;;;;;;;22.81;nan;61941.72;5055469;28;20614;-63
2023/10/01 08:38:37;;;;;;;1.20;1.10;;;;;;;23.01;nan;61924.81;5054925;28;20178;-64
2023/10/01 08:41:06;;;;;;;2.38;1.42;;;;;;;23.11;nan;61936.75;5055400;28;20652;-65
2023/10/01 08:43:36;;;;;;;1.50;1.17;;;;;;;23.34;nan;61998.84;5054548;28;20630;-64
2023/10/01 08:46:16;;;;;;;2.22;1.65;;;;;;;23.44;nan;61965.31;5054841;28;20177;-64
2023/10/01 08:48:44;;;;;;;1.48;1.17;;;;;;;23.52;nan;62128.88;5054920;28;20201;-64
2023/10/01 08:51:13;;;;;;;1.90;1.20;;;;;;;23.31;nan;61987.59;5055114;28;20194;-64
2023/10/01 08:53:41;;;;;;;2.08;1.40;;;;;;;23.71;nan;62012.25;5054813;28;20206;-64
2023/10/01 08:56:32;;;;;;;2.50;1.48;;;;;;;23.97;nan;62176.41;5054892;28;20214;-63
2023/10/01 08:58:59;;;;;;;2.15;1.58;;;;;;;24.31;nan;62178.63;5054788;28;20686;-65
2023/10/01 09:01:29;;;;;;;1.33;1.13;;;;;;;24.27;nan;62221.09;5054559;28;20167;-64
2023/10/01 09:03:56;;;;;;;1.45;1.30;;;;;;;24.00;nan;62104.13;5054691;28;20186;-66
2023/10/01 09:06:25;;;;;;;1.80;1.10;;;;;;;24.22;nan;62137.03;5054665;28;20174;-65
2023/10/01 09:08:59;;;;;;;1.65;1.55;;;;;;;24.17;nan;62144.97;5054646;28;20563;-65
2023/10/01 09:11:47;;;;;;;5.22;1.40;;;;;;;24.72;nan;62161.50;5054180;28;20207;-64
2023/10/01 09:14:17;;;;;;;1.52;1.35;;;;;;;24.93;nan;62284.78;5054095;28;20202;-65
2023/10/01 09:16:49;;;;;;;1.83;1.40;;;;;;;24.86;nan;62161.75;5054197;28;20181;-65
2023/10/01 09:19:34;;;;;;;1.95;1.27;;;;;;;24.84;nan;62222.78;5054219;28;20629;-64
2023/10/01 09:22:09;;;;;;;2.05;1.27;;;;;;;24.83;nan;62219.03;5054281;28;20190;-64
2023/10/01 09:24:38;;;;;;;1.73;1.30;;;;;;;24.97;nan;62195.78;5054335;28;20593;-64
2023/10/01 09:27:18;;;;;;;2.20;1.77;;;;;;;24.89;nan;62343.56;5054245;28;20174;-64
2023/10/01 09:29:56;;;;;;;1.08;0.95;;;;;;;24.57;nan;62286.66;5053812;28;20277;-63
2023/10/01 09:32:49;;;;;;;1.10;1.00;;;;;;;25.07;nan;62347.84;5053714;28;20577;-64
2023/10/01 09:35:30;;;;;;;1.50;1.15;;;;;;;25.23;nan;62234.75;5054074;28;20582;-64
2023/10/01 09:38:12;;;;;;;1.65;1.27;;;;;;;25.21;nan;62227.25;5053740;28;20159;-64
2023/10/01 09:40:42;;;;;;;1.33;1.23;;;;;;;25.56;nan;62329.41;5053893;28;20171;-63
2023/10/01 09:43:19;;;;;;;4.97;1.40;;;;;;;25.63;nan;62406.03;5054020;28;20191;-64
2023/10/01 09:45:46;;;;;;;1.77;1.30;;;;;;;25.50;nan;62402.22;5054208;28;20178;-63
2023/10/01 09:48:30;;;;;;;1.90;1.33;;;;;;;25.88;nan;62361.28;5053754;28;20171;-63
2023/10/01 09:51:13;;;;;;;1.45;1.30;;;;;;;25.83;nan;62423.66;5053471;28;20169;-64
2023/10/01 09:53:44;;;;;;;2.50;1.58;;;;;;;25.54;nan;62243.94;5053963;28;20194;-64
2023/10/01 09:56:12;;;;;;;1.45;1.30;;;;;;;25.62;nan;62315.88;5053606;28;20268;-64
2023/10/01 09:58:46;;;;;;;2.78;1.65;;;;;;;25.66;nan;62404.25;5053684;28;20174;-64
2023/10/01 10:01:12;;;;;;;1.33;1.23;;;;;;;25.86;nan;62343.28;5052984;28;20537;-64
2023/10/01 10:03:38;;;;;;;1.60;1.30;;;;;;;25.83;nan;62290.13;5053014;28;20176;-63
2023/10/01 10:06:06;;;;;;;1.60;1.23;;;;;;;26.07;nan;62520.69;5053397;28;20194;-64
2023/10/01 10:08:39;;;;;;;1.35;1.25;;;;;;;25.82;nan;62327.66;5053176;28;20287;-64
2023/10/01 10:11:24;;;;;;;2.63;1.10;;;;;;;25.70;nan;62342.78;5053616;28;20182;-64
2023/10/01 10:13:50;;;;;;;1.40;1.30;;;;;;;25.41;nan;62397.16;5053094;28;20159;-64
2023/10/01 10:19:04;;;;;;;1.27;1.08;;;;;;;25.52;nan;62336.44;5052912;28;20646;-64
2023/10/01 10:24:30;;;;;;;1.30;1.20;;;;;;;25.73;nan;62328.44;5048573;28;20183;-63
2023/10/01 10:27:17;;;;;;;2.95;1.85;;;;;;;25.65;nan;62259.13;5052928;28;20297;-63
2023/10/01 10:29:56;;;;;;;1.52;1.30;;;;;;;26.28;nan;62440.47;5053349;28;20682;-63
2023/10/01 10:32:27;;;;;;;1.73;1.30;;;;;;;26.26;nan;62404.13;5052887;28;20178;-65
2023/10/01 10:35:04;;;;;;;1.70;1.30;;;;;;;26.33;nan;62482.31;5053243;28;20228;-64
2023/10/01 10:37:36;;;;;;;5.97;2.00;;;;;;;26.63;nan;62487.22;5053117;28;20174;-63
2023/10/01 10:40:22;;;;;;;17.40;2.15;;;;;;;;;;5053099;28;20220;-64
2023/10/01 10:42:57;;;;;;;2.58;1.30;;;;;;;26.93;nan;62534.63;5052531;28;20174;-63
2023/10/01 10:45:26;;;;;;;1.25;1.15;;;;;;;26.57;nan;62355.06;5052015;28;20555;-64
2023/10/01 10:48:03;;;;;;;1.38;1.10;;;;;;;26.64;nan;62462.09;5051544;28;20178;-65
2023/10/01 10:50:48;;;;;;;4.75;1.50;;;;;;;26.49;nan;62413.53;5052615;28;20592;-65
2023/10/01 10:53:20;;;;;;;1.70;1.58;;;;;;;26.31;nan;62490.50;5052582;28;20201;-65
2023/10/01 10:55:56;;;;;;;1.40;1.20;;;;;;;25.98;nan;62490.00;5052772;28;20253;-64
2023/10/01 10:58:25;;;;;;;1.48;1.30;;;;;;;26.17;nan;62493.38;5052735;28;20172;-64
2023/10/01 11:00:51;;;;;;;2.10;1.63;;;;;;;26.04;nan;62399.94;5052217;28;20625;-65
2023/10/01 11:03:38;;;;;;;2.78;1.42;;;;;;;25.97;nan;62292.41;5052898;28;20209;-63
2023/10/01 11:06:22;;;;;;;2.22;1.23;;;;;;;26.11;nan;62447.22;5052879;28;20232;-63
2023/10/01 11:08:53;;;;;;;3.55;1.60;;;;;;;26.14;nan;62403.50;5052677;28;20196;-64
2023/10/01 11:11:30;;;;;;;2.28;1.40;;;;;;;26.46;nan;62436.31;5052740;28;20178;-65
2023/10/01 11:14:03;;;;;;;1.63;1.15;;;;;;;26.63;nan;62387.56;5052061;28;20350;-64
2023/10/01 11:16:38;;;;;;;1.95;1.23;;;;;;;26.98;nan;62464.28;5052515;28;20166;-64
2023/10/01 11:19:25;;;;;;;1.95;1.30;;;;;;;26.99;nan;62433.38;5051771;28;20190;-64
2023/10/01 11:21:58;;;;;;;1.50;1.27;;;;;;;27.31;nan;62597.97;5051525;28;20181;-65
2023/10/01 11:24:26;;;;;;;1.90;1.50;;;;;;;27.05;nan;62451.28;5051686;28;20630;-63
2023/10/01 11:27:11;;;;;;;3.47;2.15;;;;;;;27.07;nan;62553.28;5051980;28;20650;-64
2023/10/01 11:29:38;;;;;;;3.38;2.25;;;;;;;27.24;nan;62556.41;5052117;28;20214;-65
2023/10/01 11:32:05;;;;;;;3.72;1.45;;;;;;;27.32;nan;62649.56;5052452;28;20178;-64
2023/10/01 11:34:55;;;;;;;1.83;1.50;;;;;;;27.68;nan;62632.47;5052659;28;20299;-63
2023/10/01 11:37:27;;;;;;;1.75;1.52;;;;;;;27.67;nan;62600.38;5052468;28;20237;-65
2023/10/01 11:39:54;;;;;;;2.78;1.38;;;;;;;28.19;nan;62640.38;5052037;28;20228;-64
2023/10/01 11:42:35;;;;;;;2.58;1.48;;;;;;;28.30;nan;62666.09;5051952;28;20173;-64
2023/10/01 11:45:29;;;;;;;1.80;1.20;;;;;;;28.28;nan;62600.72;5052105;28;20642;-66
2023/10/01 11:48:19;;;;;;;1.58;0.98;;;;;;;28.17;nan;62587.56;5052315;28;20257;-64
2023/10/01 11:50:51;;;;;;;1.10;1.00;;;;;;;28.21;nan;62739.38;5052365;28;20174;-63
2023/10/01 11:53:28;;;;;;;2.42;1.23;;;;;;;28.47;nan;62740.81;5052238;28;20178;-64
2023/10/01 11:56:01;;;;;;;1.98;1.52;;;;;;;28.73;nan;62730.03;5053138;28;20190;-63
2023/10/01 11:58:28;;;;;;;2.65;1.50;;;;;;;29.15;nan;62722.28;5056281;28;20166;-64
2023/10/01 12:00:59;;;;;;;2.00;1.15;;;;;;;28.97;nan;62828.59;5056118;28;20177;-64
2023/10/01 12:03:25;;;;;;;2.72;1.50;;;;;;;28.96;nan;62743.78;5055844;28;20162;-65
2023/10/01 12:05:51;;;;;;;1.52;1.20;;;;;;;29.04;nan;62862.38;5055658;28;20548;-65
2023/10/01 12:08:18;;;;;;;1.63;1.20;;;;;;;29.18;nan;63037.00;5055492;28;20220;-64
2023/10/01 12:10:51;;;;;;;1.98;1.17;;;;;;;29.22;nan;62783.00;5057515;28;20245;-65
2023/10/01 12:13:16;;;;;;;2.70;1.60;;;;;;;29.46;nan;62867.91;5061552;28;20249;-63
2023/10/01 12:15:51;;;;;;;1.27;1.17;;;;;;;29.39;nan;62815.66;5056753;28;20205;-63
2023/10/01 12:18:17;;;;;;;2.40;1.55;;;;;;;29.45;nan;62846.25;5056155;28;20169;-64
2023/10/01 12:20:51;;;;;;;1.13;1.02;;;;;;;29.38;nan;62832.94;5055880;28;20166;-63
2023/10/01 12:23:19;;;;;;;2.45;1.70;;;;;;;27.46;nan;62649.28;5055957;28;20273;-64
2023/10/01 12:25:47;;;;;;;2.08;1.40;;;;;;;29.30;nan;62913.88;5055807;28;20198;-65
2023/10/01 12:28:18;;;;;;;2.13;1.48;;;;;;;28.98;nan;62827.13;5055117;28;20174;-64
2023/10/01 12:30:58;;;;;;;1.50;1.30;;;;;;;28.96;nan;62756.38;5055768;28;20260;-63
2023/10/01 12:33:43;;;;;;;3.05;1.80;;;;;;;29.09;nan;62797.59;5055210;28;20174;-65
2023/10/01 12:36:42;;;;;;;1.77;1.30;;;;;;;29.05;nan;62755.59;5055019;28;20546;-64
2023/10/01 12:44:36;;;;;;;2.40;1.60;;;;;;;28.80;nan;62682.78;5055092;28;20193;-65
2023/10/01 12:47:07;;;;;;;2.03;1.58;;;;;;;28.89;nan;62869.44;5055452;28;20178;-64
2023/10/01 12:49:35;;;;;;;1.23;1.13;;;;;;;28.72;nan;62702.56;5055039;28;20563;-63
2023/10/01 12:52:05;;;;;;;1.95;1.30;;;;;;;29.00;nan;62961.00;5055221;28;20220;-66